ADDS METAR Data INFO
IDs: Format: Raw Decoded Include TAF

Data at: 1937 UTC 19 Jul 2018

KIWI 191853Z AUTO 12008KT 080V150 10SM CLR 24/11 A3007 RMK AO2 SLP182 T02440111
KIWI 191753Z AUTO 33007KT 10SM CLR 26/09 A3007 RMK AO2 SLP181 T02560089 10261 20178 57007
KIWI 191653Z AUTO 00000KT 10SM CLR 25/09 A3008 RMK AO2 SLP185 T02500089
KIWI 191553Z AUTO 00000KT 10SM FEW060 24/08 A3008 RMK AO2 SLP185 T02440083
KIWI 191453Z AUTO 00000KT 10SM CLR 23/10 A3009 RMK AO2 SLP189 T02330100 53005
KIWI 191353Z AUTO 00000KT 10SM CLR 22/11 A3008 RMK AO2 SLP187 T02220106
KIWI 191253Z AUTO 04004KT 10SM CLR 21/11 A3007 RMK AO2 SLP183 T02060111
KIWI 191153Z AUTO 00000KT 10SM CLR 18/12 A3007 RMK AO2 SLP183 T01780117 10178 20089 51015
KIWI 191053Z AUTO 00000KT 10SM CLR 13/11 A3006 RMK AO2 SLP179 T01330111
KIWI 190953Z AUTO 00000KT 10SM CLR 09/09 A3005 RMK AO2 SLP177 T00940094
KIWI 190853Z AUTO 00000KT 10SM CLR 09/08 A3003 RMK AO2 SLP169 T00890083 53011
KIWI 190753Z AUTO 00000KT 10SM CLR 10/09 A3001 RMK AO2 SLP163 T01000094
KIWI 190653Z AUTO 00000KT 10SM CLR 10/09 A3000 RMK AO2 SLP160 T01000094
KIWI 190553Z AUTO 00000KT 10SM CLR 11/10 A3000 RMK AO2 SLP158 T01110100 10194 20111 51007
KIWI 190453Z AUTO 00000KT 10SM CLR 12/11 A2999 RMK AO2 SLP157 T01170111 402610117
KIWI 190353Z AUTO 00000KT 10SM CLR 13/12 A2998 RMK AO2 SLP153 T01330117
KIWI 190253Z AUTO 00000KT 10SM CLR 16/11 A2998 RMK AO2 SLP150 T01610111 51024
KIWI 190153Z AUTO 00000KT 10SM CLR 16/12 A2996 RMK AO2 SLP146 T01610122
KIWI 190053Z AUTO 00000KT 10SM CLR 18/13 A2993 RMK AO2 SLP135 T01780128
KIWI 182353Z AUTO 00000KT 10SM CLR 19/13 A2991 RMK AO2 SLP127 T01940128 10261 20194 53014
KIWI 182253Z AUTO 35003KT 10SM CLR 24/11 A2989 RMK AO2 SLP119 T02440106
KIWI 182153Z AUTO VRB03KT 10SM CLR 26/10 A2987 RMK AO2 SLP113 T02560100
KIWI 182053Z AUTO VRB05KT 10SM CLR 26/11 A2986 RMK AO2 SLP112 T02560106 51007
KIWI 181953Z AUTO VRB04KT 10SM CLR 26/12 A2986 RMK AO2 SLP110 T02610117
KIWI 181853Z AUTO VRB04KT 10SM CLR 25/12 A2986 RMK AO2 SLP109 T02500117
KIWI 181753Z AUTO VRB04KT 10SM CLR 25/12 A2984 RMK AO2 SLP105 T02500122 10250 20194 56002
KIWI 181653Z AUTO VRB06KT 10SM CLR 24/13 A2984 RMK AO2 SLP105 T02440128
KIWI 181553Z AUTO VRB04KT 10SM CLR 24/14 A2985 RMK AO2 SLP107 T02390139
KIWI 181453Z AUTO VRB06KT 10SM CLR 22/13 A2985 RMK AO2 SLP107 T02220133 51003
KIWI 181353Z AUTO VRB05KT 10SM CLR 22/14 A2985 RMK AO2 SLP108 T02170144
KIWI 181253Z AUTO 29007KT 260V330 10SM CLR 21/16 A2985 RMK AO2 SLP107 T02060161
KIWI 181153Z AUTO VRB04KT 10SM CLR 19/17 A2984 RMK AO2 SLP105 70036 T01940167 10194 20183 51022
KIWI 181053Z AUTO VRB04KT 10SM CLR 18/17 A2983 RMK AO2 SLP100 T01830172
KIWI 180953Z AUTO 28004KT 10SM CLR 18/18 A2981 RMK AO2 SLP093 T01830178
KIWI 180853Z AUTO 00000KT 10SM CLR 19/18 A2978 RMK AO2 SLP083 T01890183 50007
KIWI 180753Z AUTO 00000KT 10SM BKN095 OVC110 19/18 A2978 RMK AO2 SLP085 T01890183